OMD606 KLAS-KMZJ
Flight info
| Callsign | OMD606 |
|---|---|
| Flight time | N/A |
| Altitude | 39000 |
| Route | RASLR3 ZAYNE DRK MAIER BRUSR TFD |
| Aircraft | A320/M-SDE3FGHIRWY/LB1 |
Departure
| Time | 2026-05-07 21:00 |
|---|---|
| Airport | Harry Reid International Airport (KLAS) |
Arrival
| Time | N/A |
|---|---|
| Airport | Pinal Airpark (KMZJ) |
| Time | Latitude | Longitude | Altitude | Speed | Heading |
|---|---|---|---|---|---|
| 2026-05-07 20:32 | 36.08844 | -115.15383 | 2188 ft | 0 kts | 0° |
| 2026-05-07 20:38 | 36.08843 | -115.15383 | 2188 ft | 0 kts | 0° |
| 2026-05-07 20:49 | 36.08823 | -115.15382 | 2190 ft | 4 kts | 348° |
| 2026-05-07 20:49 | 36.08799 | -115.15371 | 2188 ft | 4 kts | 318° |
| 2026-05-07 20:49 | 36.08787 | -115.15349 | 2188 ft | 1 kts | 270° |
| 2026-05-07 20:50 | 36.08787 | -115.15348 | 2188 ft | 0 kts | 270° |
| 2026-05-07 20:52 | 36.08787 | -115.15349 | 2188 ft | 1 kts | 270° |
| 2026-05-07 20:52 | 36.08787 | -115.15373 | 2190 ft | 5 kts | 270° |
| 2026-05-07 20:52 | 36.08787 | -115.15431 | 2188 ft | 8 kts | 269° |
| 2026-05-07 20:53 | 36.08785 | -115.15474 | 2188 ft | 2 kts | 263° |
| 2026-05-07 20:53 | 36.08771 | -115.15514 | 2189 ft | 8 kts | 246° |
| 2026-05-07 20:53 | 36.08755 | -115.15594 | 2189 ft | 12 kts | 264° |
| 2026-05-07 20:53 | 36.08773 | -115.15699 | 2192 ft | 15 kts | 310° |
| 2026-05-07 20:54 | 36.08870 | -115.15699 | 2188 ft | 13 kts | 24° |
| 2026-05-07 20:54 | 36.08893 | -115.15687 | 2190 ft | 3 kts | 24° |
| 2026-05-07 20:54 | 36.08924 | -115.15669 | 2190 ft | 7 kts | 25° |
| 2026-05-07 20:54 | 36.08979 | -115.15637 | 2190 ft | 11 kts | 25° |
| 2026-05-07 20:55 | 36.09066 | -115.15586 | 2190 ft | 16 kts | 25° |
| 2026-05-07 20:55 | 36.09178 | -115.15521 | 2190 ft | 20 kts | 24° |
| 2026-05-07 20:55 | 36.09317 | -115.15443 | 2189 ft | 24 kts | 25° |
| 2026-05-07 20:55 | 36.09479 | -115.15349 | 2190 ft | 27 kts | 25° |
| 2026-05-07 20:56 | 36.09642 | -115.15255 | 2190 ft | 20 kts | 25° |
| 2026-05-07 20:56 | 36.09744 | -115.15200 | 2188 ft | 10 kts | 12° |
| 2026-05-07 20:56 | 36.09783 | -115.15219 | 2188 ft | 5 kts | 315° |
| 2026-05-07 20:56 | 36.09788 | -115.15228 | 2190 ft | 1 kts | 305° |
| 2026-05-07 20:57 | 36.09797 | -115.15248 | 2190 ft | 4 kts | 296° |
| 2026-05-07 20:57 | 36.09800 | -115.15256 | 2191 ft | 0 kts | 294° |
| 2026-05-07 20:59 | 36.09801 | -115.15258 | 2191 ft | 1 kts | 294° |
| 2026-05-07 20:59 | 36.09809 | -115.15282 | 2189 ft | 5 kts | 294° |
| 2026-05-07 20:59 | 36.09826 | -115.15332 | 2193 ft | 8 kts | 288° |
| 2026-05-07 20:59 | 36.09780 | -115.15396 | 2190 ft | 21 kts | 204° |
| 2026-05-07 21:00 | 36.09400 | -115.15617 | 2192 ft | 114 kts | 205° |
| 2026-05-07 21:00 | 36.08437 | -115.16157 | 2529 ft | 172 kts | 204° |
| 2026-05-07 21:00 | 36.07375 | -115.16746 | 3812 ft | 173 kts | 203° |
| 2026-05-07 21:00 | 36.06232 | -115.17409 | 4584 ft | 189 kts | 205° |
| 2026-05-07 21:01 | 36.04977 | -115.18161 | 4990 ft | 212 kts | 206° |
| 2026-05-07 21:01 | 36.03567 | -115.19008 | 5473 ft | 238 kts | 206° |
| 2026-05-07 21:01 | 36.01996 | -115.19948 | 6135 ft | 264 kts | 206° |
| 2026-05-07 21:01 | 36.00271 | -115.20948 | 6793 ft | 282 kts | 203° |
| 2026-05-07 21:02 | 35.98413 | -115.21764 | 7866 ft | 286 kts | 194° |
| 2026-05-07 21:02 | 35.96413 | -115.21987 | 8959 ft | 293 kts | 178° |
| 2026-05-07 21:02 | 35.94382 | -115.21546 | 10024 ft | 301 kts | 164° |
| 2026-05-07 21:02 | 35.92388 | -115.20471 | 10577 ft | 326 kts | 149° |
| 2026-05-07 21:03 | 35.90608 | -115.18657 | 11272 ft | 339 kts | 131° |
| 2026-05-07 21:03 | 35.89241 | -115.16259 | 12215 ft | 343 kts | 119° |
| 2026-05-07 21:03 | 35.88030 | -115.13747 | 13214 ft | 346 kts | 119° |
| 2026-05-07 21:03 | 35.86830 | -115.11152 | 14160 ft | 349 kts | 114° |
| 2026-05-07 21:04 | 35.85983 | -115.08346 | 15020 ft | 351 kts | 104° |
| 2026-05-07 21:04 | 35.85282 | -115.05446 | 15905 ft | 354 kts | 104° |
| 2026-05-07 21:04 | 35.84579 | -115.02514 | 16772 ft | 358 kts | 104° |
| 2026-05-07 21:04 | 35.83869 | -114.99544 | 17592 ft | 363 kts | 104° |
| 2026-05-07 21:05 | 35.83150 | -114.96551 | 18443 ft | 367 kts | 104° |
| 2026-05-07 21:05 | 35.82416 | -114.93514 | 19185 ft | 371 kts | 104° |
| 2026-05-07 21:05 | 35.81672 | -114.90443 | 19947 ft | 376 kts | 104° |
| 2026-05-07 21:05 | 35.80929 | -114.87386 | 20708 ft | 381 kts | 104° |
| 2026-05-07 21:06 | 35.80162 | -114.84243 | 21462 ft | 385 kts | 104° |